sensor_id;sensor_type;location;lat;lon;timestamp;temperature;humidity
32446;DHT22;18899;50.748;7.102;2023-04-25T00:01:39;8.80;99.90
32446;DHT22;18899;50.748;7.102;2023-04-25T00:04:04;8.70;99.90
32446;DHT22;18899;50.748;7.102;2023-04-25T00:06:34;8.70;99.90
32446;DHT22;18899;50.748;7.102;2023-04-25T00:09:02;8.60;99.90
32446;DHT22;18899;50.748;7.102;2023-04-25T00:11:28;8.60;99.90
32446;DHT22;18899;50.748;7.102;2023-04-25T00:13:56;8.60;99.90
32446;DHT22;18899;50.748;7.102;2023-04-25T00:16:22;8.70;99.90
32446;DHT22;18899;50.748;7.102;2023-04-25T00:18:49;8.60;99.90
32446;DHT22;18899;50.748;7.102;2023-04-25T00:21:18;8.60;99.90
32446;DHT22;18899;50.748;7.102;2023-04-25T00:23:43;8.50;99.90
32446;DHT22;18899;50.748;7.102;2023-04-25T00:26:11;8.50;99.90
32446;DHT22;18899;50.748;7.102;2023-04-25T00:28:37;8.50;99.90
32446;DHT22;18899;50.748;7.102;2023-04-25T00:31:03;8.40;99.90
32446;DHT22;18899;50.748;7.102;2023-04-25T00:33:28;8.50;99.90
32446;DHT22;18899;50.748;7.102;2023-04-25T00:35:55;8.30;99.90
32446;DHT22;18899;50.748;7.102;2023-04-25T00:38:20;8.30;99.90
32446;DHT22;18899;50.748;7.102;2023-04-25T00:40:46;8.40;99.90
32446;DHT22;18899;50.748;7.102;2023-04-25T00:43:12;8.20;99.90
32446;DHT22;18899;50.748;7.102;2023-04-25T00:45:38;8.30;99.90
32446;DHT22;18899;50.748;7.102;2023-04-25T00:48:05;8.20;99.90
32446;DHT22;18899;50.748;7.102;2023-04-25T00:50:35;8.30;99.90
32446;DHT22;18899;50.748;7.102;2023-04-25T00:53:01;8.30;99.90
32446;DHT22;18899;50.748;7.102;2023-04-25T00:55:28;8.20;99.90
32446;DHT22;18899;50.748;7.102;2023-04-25T00:57:54;8.00;99.90
32446;DHT22;18899;50.748;7.102;2023-04-25T01:00:20;8.00;99.90
32446;DHT22;18899;50.748;7.102;2023-04-25T01:02:46;7.80;99.90
32446;DHT22;18899;50.748;7.102;2023-04-25T01:05:12;7.70;99.90
32446;DHT22;18899;50.748;7.102;2023-04-25T01:07:37;7.60;99.90
32446;DHT22;18899;50.748;7.102;2023-04-25T01:10:04;7.50;99.90
32446;DHT22;18899;50.748;7.102;2023-04-25T01:12:30;7.60;99.90
32446;DHT22;18899;50.748;7.102;2023-04-25T01:14:56;7.90;99.90
32446;DHT22;18899;50.748;7.102;2023-04-25T01:17:22;7.90;99.90
32446;DHT22;18899;50.748;7.102;2023-04-25T01:19:47;7.70;99.90
32446;DHT22;18899;50.748;7.102;2023-04-25T01:22:14;7.60;99.90
32446;DHT22;18899;50.748;7.102;2023-04-25T01:24:40;7.50;99.90
32446;DHT22;18899;50.748;7.102;2023-04-25T01:27:07;7.40;99.90
32446;DHT22;18899;50.748;7.102;2023-04-25T01:29:33;7.50;99.90
32446;DHT22;18899;50.748;7.102;2023-04-25T01:32:00;7.30;99.90
32446;DHT22;18899;50.748;7.102;2023-04-25T01:34:26;7.50;99.90
32446;DHT22;18899;50.748;7.102;2023-04-25T01:36:53;7.50;99.90
32446;DHT22;18899;50.748;7.102;2023-04-25T01:39:19;7.50;99.90
32446;DHT22;18899;50.748;7.102;2023-04-25T01:41:46;7.40;99.90
32446;DHT22;18899;50.748;7.102;2023-04-25T01:44:12;7.20;99.90
32446;DHT22;18899;50.748;7.102;2023-04-25T01:46:37;7.00;99.90
32446;DHT22;18899;50.748;7.102;2023-04-25T01:49:03;7.00;99.90
32446;DHT22;18899;50.748;7.102;2023-04-25T01:51:29;6.90;99.90
32446;DHT22;18899;50.748;7.102;2023-04-25T01:53:55;6.70;99.90
32446;DHT22;18899;50.748;7.102;2023-04-25T01:56:21;6.60;99.90
32446;DHT22;18899;50.748;7.102;2023-04-25T01:58:47;6.80;99.90
32446;DHT22;18899;50.748;7.102;2023-04-25T02:01:12;6.80;99.90
32446;DHT22;18899;50.748;7.102;2023-04-25T02:03:38;6.80;99.90
32446;DHT22;18899;50.748;7.102;2023-04-25T02:06:04;6.80;99.90
32446;DHT22;18899;50.748;7.102;2023-04-25T02:08:29;7.00;99.90
32446;DHT22;18899;50.748;7.102;2023-04-25T02:10:55;6.90;99.90
32446;DHT22;18899;50.748;7.102;2023-04-25T02:13:21;6.80;99.90
32446;DHT22;18899;50.748;7.102;2023-04-25T02:15:46;6.60;99.90
32446;DHT22;18899;50.748;7.102;2023-04-25T02:18:12;6.60;99.90
32446;DHT22;18899;50.748;7.102;2023-04-25T02:20:37;6.70;99.90
32446;DHT22;18899;50.748;7.102;2023-04-25T02:23:03;6.70;99.90
32446;DHT22;18899;50.748;7.102;2023-04-25T02:25:29;7.00;99.90
32446;DHT22;18899;50.748;7.102;2023-04-25T02:27:55;7.10;99.90
32446;DHT22;18899;50.748;7.102;2023-04-25T02:30:20;7.30;99.90
32446;DHT22;18899;50.748;7.102;2023-04-25T02:32:46;7.30;99.90
32446;DHT22;18899;50.748;7.102;2023-04-25T02:35:11;7.30;99.90
32446;DHT22;18899;50.748;7.102;2023-04-25T02:37:38;7.20;99.90
32446;DHT22;18899;50.748;7.102;2023-04-25T02:40:05;7.10;99.90
32446;DHT22;18899;50.748;7.102;2023-04-25T02:42:30;7.20;99.90
32446;DHT22;18899;50.748;7.102;2023-04-25T02:44:56;7.20;99.90
32446;DHT22;18899;50.748;7.102;2023-04-25T02:47:21;7.20;99.90
32446;DHT22;18899;50.748;7.102;2023-04-25T02:49:47;7.40;99.90
32446;DHT22;18899;50.748;7.102;2023-04-25T02:52:13;7.50;99.90
32446;DHT22;18899;50.748;7.102;2023-04-25T02:54:39;7.40;99.90
32446;DHT22;18899;50.748;7.102;2023-04-25T02:57:05;7.30;99.90
32446;DHT22;18899;50.748;7.102;2023-04-25T02:59:31;7.30;99.90
32446;DHT22;18899;50.748;7.102;2023-04-25T03:01:56;7.50;99.90
32446;DHT22;18899;50.748;7.102;2023-04-25T03:04:22;7.40;99.90
32446;DHT22;18899;50.748;7.102;2023-04-25T03:06:52;7.10;99.90
32446;DHT22;18899;50.748;7.102;2023-04-25T03:09:18;7.00;99.90
32446;DHT22;18899;50.748;7.102;2023-04-25T03:11:44;7.00;99.90
32446;DHT22;18899;50.748;7.102;2023-04-25T03:14:10;7.00;99.90
32446;DHT22;18899;50.748;7.102;2023-04-25T03:16:36;6.90;99.90
32446;DHT22;18899;50.748;7.102;2023-04-25T03:19:03;6.90;99.90
32446;DHT22;18899;50.748;7.102;2023-04-25T03:21:29;6.80;99.90
32446;DHT22;18899;50.748;7.102;2023-04-25T03:23:54;6.90;99.90
32446;DHT22;18899;50.748;7.102;2023-04-25T03:26:20;6.80;99.90
32446;DHT22;18899;50.748;7.102;2023-04-25T03:28:45;6.80;99.90
32446;DHT22;18899;50.748;7.102;2023-04-25T03:31:11;6.70;99.90
32446;DHT22;18899;50.748;7.102;2023-04-25T03:33:37;6.60;99.90
32446;DHT22;18899;50.748;7.102;2023-04-25T03:36:02;6.60;99.90
32446;DHT22;18899;50.748;7.102;2023-04-25T03:38:28;6.50;99.90
32446;DHT22;18899;50.748;7.102;2023-04-25T03:40:54;6.60;99.90
32446;DHT22;18899;50.748;7.102;2023-04-25T03:43:21;6.80;99.90
32446;DHT22;18899;50.748;7.102;2023-04-25T03:45:47;6.80;99.90
32446;DHT22;18899;50.748;7.102;2023-04-25T03:48:12;6.80;99.90
32446;DHT22;18899;50.748;7.102;2023-04-25T03:50:38;6.70;99.90
32446;DHT22;18899;50.748;7.102;2023-04-25T03:53:03;6.50;99.90
32446;DHT22;18899;50.748;7.102;2023-04-25T03:55:29;6.40;99.90
32446;DHT22;18899;50.748;7.102;2023-04-25T03:57:54;6.40;99.90
32446;DHT22;18899;50.748;7.102;2023-04-25T04:00:20;6.50;99.90
32446;DHT22;18899;50.748;7.102;2023-04-25T04:02:46;6.50;99.90
32446;DHT22;18899;50.748;7.102;2023-04-25T04:05:11;6.50;99.90
32446;DHT22;18899;50.748;7.102;2023-04-25T04:07:37;6.50;99.90
32446;DHT22;18899;50.748;7.102;2023-04-25T04:10:07;6.60;99.90
32446;DHT22;18899;50.748;7.102;2023-04-25T04:12:33;6.60;99.90
32446;DHT22;18899;50.748;7.102;2023-04-25T04:14:59;6.80;99.90
32446;DHT22;18899;50.748;7.102;2023-04-25T04:17:24;6.90;99.90
32446;DHT22;18899;50.748;7.102;2023-04-25T04:19:50;6.90;99.90
32446;DHT22;18899;50.748;7.102;2023-04-25T04:22:16;6.90;99.90
32446;DHT22;18899;50.748;7.102;2023-04-25T04:24:41;6.90;99.90
32446;DHT22;18899;50.748;7.102;2023-04-25T04:27:09;7.00;99.90
32446;DHT22;18899;50.748;7.102;2023-04-25T04:29:35;6.90;99.90
32446;DHT22;18899;50.748;7.102;2023-04-25T04:32:02;6.90;99.90
32446;DHT22;18899;50.748;7.102;2023-04-25T04:34:28;6.90;99.90
32446;DHT22;18899;50.748;7.102;2023-04-25T04:36:54;6.90;99.90
32446;DHT22;18899;50.748;7.102;2023-04-25T04:39:20;6.90;99.90
32446;DHT22;18899;50.748;7.102;2023-04-25T04:41:46;6.90;99.90
32446;DHT22;18899;50.748;7.102;2023-04-25T04:44:12;7.00;99.90
32446;DHT22;18899;50.748;7.102;2023-04-25T04:46:37;7.10;99.90
32446;DHT22;18899;50.748;7.102;2023-04-25T04:49:11;7.10;99.90
32446;DHT22;18899;50.748;7.102;2023-04-25T04:51:37;7.20;99.90
32446;DHT22;18899;50.748;7.102;2023-04-25T04:54:03;7.30;99.90
32446;DHT22;18899;50.748;7.102;2023-04-25T04:56:29;7.50;99.90
32446;DHT22;18899;50.748;7.102;2023-04-25T04:58:56;7.60;99.90
32446;DHT22;18899;50.748;7.102;2023-04-25T05:01:22;7.50;99.90
32446;DHT22;18899;50.748;7.102;2023-04-25T05:03:48;7.40;99.90
32446;DHT22;18899;50.748;7.102;2023-04-25T05:06:13;7.40;99.90
32446;DHT22;18899;50.748;7.102;2023-04-25T05:08:39;7.40;99.90
32446;DHT22;18899;50.748;7.102;2023-04-25T05:11:05;7.50;99.90
32446;DHT22;18899;50.748;7.102;2023-04-25T05:13:30;7.60;99.90
32446;DHT22;18899;50.748;7.102;2023-04-25T05:15:56;7.60;99.90
32446;DHT22;18899;50.748;7.102;2023-04-25T05:18:22;7.50;99.90
32446;DHT22;18899;50.748;7.102;2023-04-25T05:20:47;7.70;99.90
32446;DHT22;18899;50.748;7.102;2023-04-25T05:23:13;7.80;99.90
32446;DHT22;18899;50.748;7.102;2023-04-25T05:25:38;7.90;99.90
32446;DHT22;18899;50.748;7.102;2023-04-25T05:28:04;8.00;99.90
32446;DHT22;18899;50.748;7.102;2023-04-25T05:30:30;8.10;99.90
32446;DHT22;18899;50.748;7.102;2023-04-25T05:32:56;8.20;99.90
32446;DHT22;18899;50.748;7.102;2023-04-25T05:35:21;8.30;99.90
32446;DHT22;18899;50.748;7.102;2023-04-25T05:37:47;8.30;99.90
32446;DHT22;18899;50.748;7.102;2023-04-25T05:40:13;8.30;99.90
32446;DHT22;18899;50.748;7.102;2023-04-25T05:42:38;8.30;99.90
32446;DHT22;18899;50.748;7.102;2023-04-25T05:45:04;8.50;99.90
32446;DHT22;18899;50.748;7.102;2023-04-25T05:47:30;8.50;99.90
32446;DHT22;18899;50.748;7.102;2023-04-25T05:49:56;8.70;99.90
32446;DHT22;18899;50.748;7.102;2023-04-25T05:52:21;8.70;99.90
32446;DHT22;18899;50.748;7.102;2023-04-25T05:54:47;8.60;99.90
32446;DHT22;18899;50.748;7.102;2023-04-25T05:57:24;8.80;99.90
32446;DHT22;18899;50.748;7.102;2023-04-25T05:59:49;8.80;99.90
32446;DHT22;18899;50.748;7.102;2023-04-25T06:02:15;8.80;99.90
32446;DHT22;18899;50.748;7.102;2023-04-25T06:04:41;8.70;99.90
32446;DHT22;18899;50.748;7.102;2023-04-25T06:07:06;8.60;99.90
32446;DHT22;18899;50.748;7.102;2023-04-25T06:09:32;8.60;99.90
32446;DHT22;18899;50.748;7.102;2023-04-25T06:11:57;8.90;99.90
32446;DHT22;18899;50.748;7.102;2023-04-25T06:14:23;9.10;99.90
32446;DHT22;18899;50.748;7.102;2023-04-25T06:16:48;9.20;99.90
32446;DHT22;18899;50.748;7.102;2023-04-25T06:19:14;9.40;99.90
32446;DHT22;18899;50.748;7.102;2023-04-25T06:21:41;9.30;99.90
32446;DHT22;18899;50.748;7.102;2023-04-25T06:24:06;9.20;99.90
32446;DHT22;18899;50.748;7.102;2023-04-25T06:26:32;9.30;99.90
32446;DHT22;18899;50.748;7.102;2023-04-25T06:28:57;9.40;99.90
32446;DHT22;18899;50.748;7.102;2023-04-25T06:31:23;9.40;99.90
32446;DHT22;18899;50.748;7.102;2023-04-25T06:33:49;9.50;99.90
32446;DHT22;18899;50.748;7.102;2023-04-25T06:36:14;9.50;99.90
32446;DHT22;18899;50.748;7.102;2023-04-25T06:38:40;10.00;99.90
32446;DHT22;18899;50.748;7.102;2023-04-25T06:41:05;10.10;99.90
32446;DHT22;18899;50.748;7.102;2023-04-25T06:43:31;10.20;99.90
32446;DHT22;18899;50.748;7.102;2023-04-25T06:45:59;10.30;99.90
32446;DHT22;18899;50.748;7.102;2023-04-25T06:48:26;10.20;99.90
32446;DHT22;18899;50.748;7.102;2023-04-25T06:50:52;10.40;99.90
32446;DHT22;18899;50.748;7.102;2023-04-25T06:53:17;10.80;99.90
32446;DHT22;18899;50.748;7.102;2023-04-25T06:55:44;11.70;99.90
32446;DHT22;18899;50.748;7.102;2023-04-25T06:58:09;12.80;99.90
32446;DHT22;18899;50.748;7.102;2023-04-25T07:00:35;13.80;99.90
32446;DHT22;18899;50.748;7.102;2023-04-25T07:03:01;13.80;99.90
32446;DHT22;18899;50.748;7.102;2023-04-25T07:05:27;13.70;99.90
32446;DHT22;18899;50.748;7.102;2023-04-25T07:07:52;13.50;99.90
32446;DHT22;18899;50.748;7.102;2023-04-25T07:10:18;13.40;99.90
32446;DHT22;18899;50.748;7.102;2023-04-25T07:12:44;13.40;99.90
32446;DHT22;18899;50.748;7.102;2023-04-25T07:15:09;13.40;99.90
32446;DHT22;18899;50.748;7.102;2023-04-25T07:17:37;13.70;99.90
32446;DHT22;18899;50.748;7.102;2023-04-25T07:20:02;14.50;99.90
32446;DHT22;18899;50.748;7.102;2023-04-25T07:22:29;14.90;97.80
32446;DHT22;18899;50.748;7.102;2023-04-25T07:24:55;15.80;96.30
32446;DHT22;18899;50.748;7.102;2023-04-25T07:27:20;16.20;91.70
32446;DHT22;18899;50.748;7.102;2023-04-25T07:29:46;15.90;86.20
32446;DHT22;18899;50.748;7.102;2023-04-25T07:32:11;15.00;90.30
32446;DHT22;18899;50.748;7.102;2023-04-25T07:34:38;14.70;88.70
32446;DHT22;18899;50.748;7.102;2023-04-25T07:37:05;13.40;95.00
32446;DHT22;18899;50.748;7.102;2023-04-25T07:39:31;12.90;97.70
32446;DHT22;18899;50.748;7.102;2023-04-25T07:41:56;12.70;99.90
32446;DHT22;18899;50.748;7.102;2023-04-25T07:44:23;12.20;99.90
32446;DHT22;18899;50.748;7.102;2023-04-25T07:46:49;11.80;99.90
32446;DHT22;18899;50.748;7.102;2023-04-25T07:49:15;11.70;99.90
32446;DHT22;18899;50.748;7.102;2023-04-25T07:51:41;11.60;99.90
32446;DHT22;18899;50.748;7.102;2023-04-25T07:54:09;11.60;99.90
32446;DHT22;18899;50.748;7.102;2023-04-25T07:56:34;11.80;99.90
32446;DHT22;18899;50.748;7.102;2023-04-25T07:59:00;12.30;99.90
32446;DHT22;18899;50.748;7.102;2023-04-25T08:01:26;12.70;99.90
32446;DHT22;18899;50.748;7.102;2023-04-25T08:03:52;12.80;99.90
32446;DHT22;18899;50.748;7.102;2023-04-25T08:06:18;12.70;99.90
32446;DHT22;18899;50.748;7.102;2023-04-25T08:08:43;12.70;99.90
32446;DHT22;18899;50.748;7.102;2023-04-25T08:11:09;12.60;99.90
32446;DHT22;18899;50.748;7.102;2023-04-25T08:13:35;12.70;99.90
32446;DHT22;18899;50.748;7.102;2023-04-25T08:16:02;12.70;99.90
32446;DHT22;18899;50.748;7.102;2023-04-25T08:18:28;12.60;99.90
32446;DHT22;18899;50.748;7.102;2023-04-25T08:20:53;12.60;99.90
32446;DHT22;18899;50.748;7.102;2023-04-25T08:23:19;12.60;99.90
32446;DHT22;18899;50.748;7.102;2023-04-25T08:25:45;12.30;99.90
32446;DHT22;18899;50.748;7.102;2023-04-25T08:28:10;12.20;99.90
32446;DHT22;18899;50.748;7.102;2023-04-25T08:30:36;12.00;99.50
32446;DHT22;18899;50.748;7.102;2023-04-25T08:33:02;11.90;98.10
32446;DHT22;18899;50.748;7.102;2023-04-25T08:35:28;12.10;95.60
32446;DHT22;18899;50.748;7.102;2023-04-25T08:37:53;11.90;94.40
32446;DHT22;18899;50.748;7.102;2023-04-25T08:40:22;12.00;95.60
32446;DHT22;18899;50.748;7.102;2023-04-25T08:42:52;11.70;96.90
32446;DHT22;18899;50.748;7.102;2023-04-25T08:45:18;11.60;97.10
32446;DHT22;18899;50.748;7.102;2023-04-25T08:47:45;11.40;96.30
32446;DHT22;18899;50.748;7.102;2023-04-25T08:50:11;11.50;97.30
32446;DHT22;18899;50.748;7.102;2023-04-25T08:52:43;11.30;99.10
32446;DHT22;18899;50.748;7.102;2023-04-25T08:55:09;11.20;99.90
32446;DHT22;18899;50.748;7.102;2023-04-25T08:57:37;11.40;99.10
32446;DHT22;18899;50.748;7.102;2023-04-25T09:00:03;11.50;99.90
32446;DHT22;18899;50.748;7.102;2023-04-25T09:02:29;11.80;99.90
32446;DHT22;18899;50.748;7.102;2023-04-25T09:04:55;12.40;99.90
32446;DHT22;18899;50.748;7.102;2023-04-25T09:07:21;13.20;99.90
32446;DHT22;18899;50.748;7.102;2023-04-25T09:09:47;13.90;92.80
32446;DHT22;18899;50.748;7.102;2023-04-25T09:12:13;14.40;87.00
32446;DHT22;18899;50.748;7.102;2023-04-25T09:14:39;14.70;86.90
32446;DHT22;18899;50.748;7.102;2023-04-25T09:17:05;14.40;84.20
32446;DHT22;18899;50.748;7.102;2023-04-25T09:19:34;14.40;81.50
32446;DHT22;18899;50.748;7.102;2023-04-25T09:22:03;13.90;80.50
32446;DHT22;18899;50.748;7.102;2023-04-25T09:24:40;13.90;81.60
32446;DHT22;18899;50.748;7.102;2023-04-25T09:27:12;14.10;80.80
32446;DHT22;18899;50.748;7.102;2023-04-25T09:29:39;13.90;75.80
32446;DHT22;18899;50.748;7.102;2023-04-25T09:32:21;13.70;75.40
32446;DHT22;18899;50.748;7.102;2023-04-25T09:34:48;12.70;74.60
32446;DHT22;18899;50.748;7.102;2023-04-25T09:39:52;12.50;75.60
32446;DHT22;18899;50.748;7.102;2023-04-25T09:42:23;12.10;74.90
32446;DHT22;18899;50.748;7.102;2023-04-25T09:44:52;11.70;78.30
32446;DHT22;18899;50.748;7.102;2023-04-25T09:47:17;11.50;78.20
32446;DHT22;18899;50.748;7.102;2023-04-25T09:49:43;11.50;80.90
32446;DHT22;18899;50.748;7.102;2023-04-25T09:52:29;11.80;81.90
32446;DHT22;18899;50.748;7.102;2023-04-25T09:54:55;12.10;79.50
32446;DHT22;18899;50.748;7.102;2023-04-25T09:57:24;12.40;79.90
32446;DHT22;18899;50.748;7.102;2023-04-25T09:59:55;13.40;75.20
32446;DHT22;18899;50.748;7.102;2023-04-25T10:02:25;14.00;72.60
32446;DHT22;18899;50.748;7.102;2023-04-25T10:04:53;14.50;74.20
32446;DHT22;18899;50.748;7.102;2023-04-25T10:07:24;14.90;70.60
32446;DHT22;18899;50.748;7.102;2023-04-25T10:10:04;15.20;70.40
32446;DHT22;18899;50.748;7.102;2023-04-25T10:12:31;16.20;69.60
32446;DHT22;18899;50.748;7.102;2023-04-25T10:14:58;16.30;63.50
32446;DHT22;18899;50.748;7.102;2023-04-25T10:17:24;15.00;66.40
32446;DHT22;18899;50.748;7.102;2023-04-25T10:19:52;14.70;65.40
32446;DHT22;18899;50.748;7.102;2023-04-25T10:22:26;13.80;68.70
32446;DHT22;18899;50.748;7.102;2023-04-25T10:24:53;13.40;71.50
32446;DHT22;18899;50.748;7.102;2023-04-25T10:27:20;13.10;72.80
32446;DHT22;18899;50.748;7.102;2023-04-25T10:30:09;13.20;74.80
32446;DHT22;18899;50.748;7.102;2023-04-25T10:32:37;13.50;74.50
32446;DHT22;18899;50.748;7.102;2023-04-25T10:35:34;13.70;73.20
32446;DHT22;18899;50.748;7.102;2023-04-25T10:38:04;13.70;70.00
32446;DHT22;18899;50.748;7.102;2023-04-25T10:40:30;13.50;73.10
32446;DHT22;18899;50.748;7.102;2023-04-25T10:46:25;13.10;73.10
32446;DHT22;18899;50.748;7.102;2023-04-25T10:48:52;12.50;77.90
32446;DHT22;18899;50.748;7.102;2023-04-25T10:51:23;12.60;77.10
32446;DHT22;18899;50.748;7.102;2023-04-25T10:59:18;11.50;81.80
32446;DHT22;18899;50.748;7.102;2023-04-25T11:01:46;11.30;83.30
32446;DHT22;18899;50.748;7.102;2023-04-25T11:04:29;11.10;84.90
32446;DHT22;18899;50.748;7.102;2023-04-25T11:07:17;11.10;86.00
32446;DHT22;18899;50.748;7.102;2023-04-25T11:09:45;11.10;86.90
32446;DHT22;18899;50.748;7.102;2023-04-25T11:12:11;11.00;87.60
32446;DHT22;18899;50.748;7.102;2023-04-25T11:14:38;10.90;88.20
32446;DHT22;18899;50.748;7.102;2023-04-25T11:17:04;11.10;88.10
32446;DHT22;18899;50.748;7.102;2023-04-25T11:19:30;11.20;86.40
32446;DHT22;18899;50.748;7.102;2023-04-25T11:21:57;11.30;88.50
32446;DHT22;18899;50.748;7.102;2023-04-25T11:24:30;11.30;88.70
32446;DHT22;18899;50.748;7.102;2023-04-25T11:26:58;11.30;88.40
32446;DHT22;18899;50.748;7.102;2023-04-25T11:29:26;11.40;90.00
32446;DHT22;18899;50.748;7.102;2023-04-25T11:31:53;11.70;89.00
32446;DHT22;18899;50.748;7.102;2023-04-25T11:34:21;12.10;91.20
32446;DHT22;18899;50.748;7.102;2023-04-25T11:36:47;12.20;86.80
32446;DHT22;18899;50.748;7.102;2023-04-25T11:39:13;12.40;83.30
32446;DHT22;18899;50.748;7.102;2023-04-25T11:41:39;12.10;85.10
32446;DHT22;18899;50.748;7.102;2023-04-25T11:44:05;11.90;86.30
32446;DHT22;18899;50.748;7.102;2023-04-25T11:46:33;11.80;87.80
32446;DHT22;18899;50.748;7.102;2023-04-25T11:48:59;11.50;88.00
32446;DHT22;18899;50.748;7.102;2023-04-25T11:51:24;11.30;89.00
32446;DHT22;18899;50.748;7.102;2023-04-25T11:53:51;11.00;89.20
32446;DHT22;18899;50.748;7.102;2023-04-25T11:56:17;10.70;91.50
32446;DHT22;18899;50.748;7.102;2023-04-25T12:01:35;10.50;91.70
32446;DHT22;18899;50.748;7.102;2023-04-25T12:04:21;10.40;91.50
32446;DHT22;18899;50.748;7.102;2023-04-25T12:06:49;10.30;91.00
32446;DHT22;18899;50.748;7.102;2023-04-25T12:09:17;10.30;90.10
32446;DHT22;18899;50.748;7.102;2023-04-25T12:11:54;10.40;90.50
32446;DHT22;18899;50.748;7.102;2023-04-25T12:14:26;10.50;90.20
32446;DHT22;18899;50.748;7.102;2023-04-25T12:16:57;10.80;88.60
32446;DHT22;18899;50.748;7.102;2023-04-25T12:19:23;11.00;86.60
32446;DHT22;18899;50.748;7.102;2023-04-25T12:21:50;11.20;80.90
32446;DHT22;18899;50.748;7.102;2023-04-25T12:24:26;11.50;81.40
32446;DHT22;18899;50.748;7.102;2023-04-25T12:27:14;11.80;80.50
32446;DHT22;18899;50.748;7.102;2023-04-25T12:29:53;12.30;80.90
32446;DHT22;18899;50.748;7.102;2023-04-25T12:32:19;12.60;82.50
32446;DHT22;18899;50.748;7.102;2023-04-25T12:34:45;12.80;78.30
32446;DHT22;18899;50.748;7.102;2023-04-25T12:37:11;12.60;78.50
32446;DHT22;18899;50.748;7.102;2023-04-25T12:39:37;12.50;78.60
32446;DHT22;18899;50.748;7.102;2023-04-25T12:42:03;12.20;77.40
32446;DHT22;18899;50.748;7.102;2023-04-25T12:44:28;12.30;77.50
32446;DHT22;18899;50.748;7.102;2023-04-25T12:46:54;12.10;76.90
32446;DHT22;18899;50.748;7.102;2023-04-25T12:49:20;12.10;82.70
32446;DHT22;18899;50.748;7.102;2023-04-25T12:51:46;12.10;82.80
32446;DHT22;18899;50.748;7.102;2023-04-25T12:54:12;12.10;81.70
32446;DHT22;18899;50.748;7.102;2023-04-25T12:56:38;12.10;80.10
32446;DHT22;18899;50.748;7.102;2023-04-25T12:59:04;12.20;83.40
32446;DHT22;18899;50.748;7.102;2023-04-25T13:01:29;12.40;85.50
32446;DHT22;18899;50.748;7.102;2023-04-25T13:03:55;12.80;79.80
32446;DHT22;18899;50.748;7.102;2023-04-25T13:06:21;13.00;81.70
32446;DHT22;18899;50.748;7.102;2023-04-25T13:08:47;13.10;77.40
32446;DHT22;18899;50.748;7.102;2023-04-25T13:11:13;13.00;75.90
32446;DHT22;18899;50.748;7.102;2023-04-25T13:13:40;13.10;74.70
32446;DHT22;18899;50.748;7.102;2023-04-25T13:16:07;13.10;73.60
32446;DHT22;18899;50.748;7.102;2023-04-25T13:18:33;13.10;70.20
32446;DHT22;18899;50.748;7.102;2023-04-25T13:20:59;13.00;71.10
32446;DHT22;18899;50.748;7.102;2023-04-25T13:23:26;12.90;69.80
32446;DHT22;18899;50.748;7.102;2023-04-25T13:25:52;12.70;71.80
32446;DHT22;18899;50.748;7.102;2023-04-25T13:28:17;12.70;72.00
32446;DHT22;18899;50.748;7.102;2023-04-25T13:30:43;12.60;73.40
32446;DHT22;18899;50.748;7.102;2023-04-25T13:33:09;12.60;72.10
32446;DHT22;18899;50.748;7.102;2023-04-25T13:35:36;12.60;74.40
32446;DHT22;18899;50.748;7.102;2023-04-25T13:38:02;12.40;74.10
32446;DHT22;18899;50.748;7.102;2023-04-25T13:40:27;12.20;74.60
32446;DHT22;18899;50.748;7.102;2023-04-25T13:42:54;12.00;75.70
32446;DHT22;18899;50.748;7.102;2023-04-25T13:45:20;11.80;76.00
32446;DHT22;18899;50.748;7.102;2023-04-25T13:47:46;11.50;77.60
32446;DHT22;18899;50.748;7.102;2023-04-25T13:50:12;11.20;79.70
32446;DHT22;18899;50.748;7.102;2023-04-25T13:52:39;11.10;78.90
32446;DHT22;18899;50.748;7.102;2023-04-25T13:55:05;10.80;80.00
32446;DHT22;18899;50.748;7.102;2023-04-25T13:57:32;10.60;80.80
32446;DHT22;18899;50.748;7.102;2023-04-25T13:59:58;10.50;85.50
32446;DHT22;18899;50.748;7.102;2023-04-25T14:02:24;10.50;84.20
32446;DHT22;18899;50.748;7.102;2023-04-25T14:04:50;10.60;85.40
32446;DHT22;18899;50.748;7.102;2023-04-25T14:07:15;10.80;84.00
32446;DHT22;18899;50.748;7.102;2023-04-25T14:09:44;11.00;84.30
32446;DHT22;18899;50.748;7.102;2023-04-25T14:12:10;11.40;84.60
32446;DHT22;18899;50.748;7.102;2023-04-25T14:14:36;11.90;80.90
32446;DHT22;18899;50.748;7.102;2023-04-25T14:17:02;12.10;80.70
32446;DHT22;18899;50.748;7.102;2023-04-25T14:19:28;12.10;82.30
32446;DHT22;18899;50.748;7.102;2023-04-25T14:21:54;12.30;81.70
32446;DHT22;18899;50.748;7.102;2023-04-25T14:24:20;12.50;80.20
32446;DHT22;18899;50.748;7.102;2023-04-25T14:26:45;12.60;80.70
32446;DHT22;18899;50.748;7.102;2023-04-25T14:29:11;12.30;77.40
32446;DHT22;18899;50.748;7.102;2023-04-25T14:31:37;12.20;76.70
32446;DHT22;18899;50.748;7.102;2023-04-25T14:34:04;12.50;74.70
32446;DHT22;18899;50.748;7.102;2023-04-25T14:36:31;12.60;75.90
32446;DHT22;18899;50.748;7.102;2023-04-25T14:38:57;12.60;72.60
32446;DHT22;18899;50.748;7.102;2023-04-25T14:41:24;12.40;71.80
32446;DHT22;18899;50.748;7.102;2023-04-25T14:43:50;12.70;73.60
32446;DHT22;18899;50.748;7.102;2023-04-25T14:46:15;12.70;73.60
32446;DHT22;18899;50.748;7.102;2023-04-25T14:48:41;12.60;70.50
32446;DHT22;18899;50.748;7.102;2023-04-25T14:51:07;12.80;73.80
32446;DHT22;18899;50.748;7.102;2023-04-25T14:53:33;12.60;72.70
32446;DHT22;18899;50.748;7.102;2023-04-25T14:55:58;12.60;75.00
32446;DHT22;18899;50.748;7.102;2023-04-25T14:58:24;12.40;73.50
32446;DHT22;18899;50.748;7.102;2023-04-25T15:00:49;12.00;71.50
32446;DHT22;18899;50.748;7.102;2023-04-25T15:03:16;12.00;71.30
32446;DHT22;18899;50.748;7.102;2023-04-25T15:05:42;12.10;70.30
32446;DHT22;18899;50.748;7.102;2023-04-25T15:08:08;12.00;69.70
32446;DHT22;18899;50.748;7.102;2023-04-25T15:10:34;11.90;71.30
32446;DHT22;18899;50.748;7.102;2023-04-25T15:13:00;12.10;73.20
32446;DHT22;18899;50.748;7.102;2023-04-25T15:15:25;12.50;71.10
32446;DHT22;18899;50.748;7.102;2023-04-25T15:17:52;12.40;71.20
32446;DHT22;18899;50.748;7.102;2023-04-25T15:20:17;12.20;70.10
32446;DHT22;18899;50.748;7.102;2023-04-25T15:22:43;12.20;69.00
32446;DHT22;18899;50.748;7.102;2023-04-25T15:25:10;12.30;68.30
32446;DHT22;18899;50.748;7.102;2023-04-25T15:27:37;12.50;69.10
32446;DHT22;18899;50.748;7.102;2023-04-25T15:30:09;12.50;68.70
32446;DHT22;18899;50.748;7.102;2023-04-25T15:32:36;12.60;66.20
32446;DHT22;18899;50.748;7.102;2023-04-25T15:35:04;12.60;66.20
32446;DHT22;18899;50.748;7.102;2023-04-25T15:37:30;12.50;67.20
32446;DHT22;18899;50.748;7.102;2023-04-25T15:42:26;12.50;67.80
32446;DHT22;18899;50.748;7.102;2023-04-25T15:44:52;12.40;66.40
32446;DHT22;18899;50.748;7.102;2023-04-25T15:47:17;12.30;66.30
32446;DHT22;18899;50.748;7.102;2023-04-25T15:49:43;12.20;68.70
32446;DHT22;18899;50.748;7.102;2023-04-25T15:52:08;11.90;68.70